Raleigh, North Dakota
Current Conditions -  °F | °C
As of 3:35 AM on Monday 22 Dec 2014 (Local Time) from KY19 Reporting Station
Moderate Fog Moderate Fog  
Wind Chill: 21°   Ceiling: 200
Heat Index: 27°   Visibility: 0.25mi
Dew Point: 27°   Wind: 5mph
Humidity: 100%   Direction: 120°ESE
Pressure: 29.44"   Gusts: NA
Location:  46.36°N, 101.31°W
Report Text: KY19 221035Z AUTO 12004KT 1/4SM FZFG OVC002 M03/M03 A2944 RMK AO2
Loading
Personal Weather Stations






























Interactive Weather Map New forecast layout! Learn more

10-Day Weather Forecast

Advertisements
Track Severe Weather on mobile